createdAt,value
2018-11-26T00:01:09.702Z,0
2018-11-26T00:02:19.861Z,0
2018-11-26T00:03:29.752Z,0
2018-11-26T00:04:39.905Z,0
2018-11-26T00:05:49.531Z,0
2018-11-26T00:06:59.705Z,0
2018-11-26T00:08:09.873Z,0
2018-11-26T00:09:19.771Z,0
2018-11-26T00:10:29.665Z,0
2018-11-26T00:11:39.848Z,0
2018-11-26T00:12:50.008Z,0
2018-11-26T00:14:00.173Z,0
2018-11-26T00:15:10.085Z,0
2018-11-26T00:16:20.252Z,0
2018-11-26T00:17:30.413Z,0
2018-11-26T00:18:40.560Z,0
2018-11-26T00:19:50.712Z,0
2018-11-26T00:21:00.869Z,0
2018-11-26T00:22:11.034Z,0
2018-11-26T00:23:21.194Z,0
2018-11-26T00:24:31.100Z,0
2018-11-26T00:25:41.257Z,0
2018-11-26T00:26:51.153Z,0
2018-11-26T00:28:01.058Z,0
2018-11-26T00:29:10.950Z,0
2018-11-26T00:30:20.896Z,0
2018-11-26T00:31:31.060Z,0
2018-11-26T00:32:40.968Z,0
2018-11-26T00:33:51.126Z,0
2018-11-26T00:35:01.292Z,0
2018-11-26T00:36:11.448Z,0
2018-11-26T00:37:21.610Z,0
2018-11-26T00:38:31.765Z,0
2018-11-26T00:39:41.928Z,0
2018-11-26T00:40:52.081Z,0
2018-11-26T00:42:02.237Z,0
2018-11-26T00:43:12.402Z,0
2018-11-26T00:44:22.292Z,0
2018-11-26T00:45:32.450Z,0
2018-11-26T00:46:42.617Z,0
2018-11-26T00:47:52.513Z,0
2018-11-26T00:49:02.668Z,0
2018-11-26T00:50:12.834Z,0
2018-11-26T00:51:22.990Z,0
2018-11-26T00:52:32.911Z,0
2018-11-26T00:53:42.811Z,0
2018-11-26T00:54:52.972Z,0
2018-11-26T00:56:03.138Z,0
2018-11-26T00:57:13.300Z,0
2018-11-26T00:58:23.459Z,0
2018-11-26T00:59:33.612Z,0
2018-11-26T01:00:43.502Z,0
2018-11-26T01:01:53.412Z,0
2018-11-26T01:03:03.310Z,0
2018-11-26T01:04:13.476Z,0
2018-11-26T01:05:23.636Z,0
2018-11-26T01:06:33.794Z,0
2018-11-26T01:07:43.970Z,0
2018-11-26T01:08:54.130Z,0
2018-11-26T01:10:04.309Z,0
2018-11-26T01:11:14.500Z,0
2018-11-26T01:12:24.660Z,0
2018-11-26T01:13:34.551Z,0
2018-11-26T01:14:44.712Z,0
2018-11-26T01:15:54.611Z,0
2018-11-26T01:17:04.772Z,0
2018-11-26T01:18:14.932Z,0
2018-11-26T01:19:24.839Z,0
2018-11-26T01:20:35.029Z,0
2018-11-26T01:21:45.188Z,0
2018-11-26T01:22:55.337Z,0
2018-11-26T01:24:05.498Z,0
2018-11-26T01:25:15.654Z,0
2018-11-26T01:26:25.811Z,0
2018-11-26T01:27:35.976Z,0
2018-11-26T01:28:46.136Z,0
2018-11-26T01:29:56.292Z,0
2018-11-26T01:31:06.459Z,0
2018-11-26T01:32:16.617Z,0
2018-11-26T01:33:26.559Z,0
2018-11-26T01:34:36.717Z,0
2018-11-26T01:35:46.649Z,0
2018-11-26T01:36:56.800Z,0
2018-11-26T01:38:06.702Z,0
2018-11-26T01:39:16.866Z,0
2018-11-26T01:40:27.059Z,0
2018-11-26T01:41:37.216Z,0
2018-11-26T01:42:47.378Z,0
2018-11-26T01:43:57.540Z,0
2018-11-26T01:45:07.700Z,0
2018-11-26T01:46:17.852Z,0
2018-11-26T01:47:28.010Z,0
2018-11-26T01:48:38.180Z,0
2018-11-26T01:49:48.336Z,0
2018-11-26T01:50:58.232Z,0
2018-11-26T01:52:08.386Z,0
2018-11-26T01:53:18.276Z,0
2018-11-26T01:54:28.164Z,0
2018-11-26T01:55:38.055Z,0
2018-11-26T01:56:48.226Z,0
2018-11-26T01:57:58.123Z,0
2018-11-26T01:59:08.024Z,0
2018-11-26T02:00:17.942Z,0
2018-11-26T02:01:28.101Z,0
2018-11-26T02:02:37.997Z,0
2018-11-26T02:03:48.156Z,0
2018-11-26T02:04:58.328Z,0
2018-11-26T02:06:08.230Z,0
2018-11-26T02:07:18.395Z,0
2018-11-26T02:08:28.562Z,0
2018-11-26T02:09:38.455Z,0
2018-11-26T02:10:48.623Z,0
2018-11-26T02:11:57.997Z,0
2018-11-26T02:13:08.148Z,0
2018-11-26T02:14:18.310Z,0
2018-11-26T02:15:28.465Z,0
2018-11-26T02:16:38.619Z,0
2018-11-26T02:17:48.807Z,0
2018-11-26T02:18:58.713Z,0
2018-11-26T02:20:08.886Z,0
2018-11-26T02:21:19.045Z,0
2018-11-26T02:22:29.204Z,0
2018-11-26T02:23:39.358Z,0
2018-11-26T02:24:49.248Z,0
2018-11-26T02:25:59.157Z,0
2018-11-26T02:27:09.317Z,0
2018-11-26T02:28:19.211Z,0
2018-11-26T02:29:29.105Z,0
2018-11-26T02:30:39.261Z,0
2018-11-26T02:31:49.424Z,0
2018-11-26T02:32:59.585Z,0
2018-11-26T02:34:09.760Z,0
2018-11-26T02:35:19.954Z,0
2018-11-26T02:36:30.121Z,0
2018-11-26T02:37:40.296Z,0
2018-11-26T02:38:50.469Z,0
2018-11-26T02:40:00.626Z,0
2018-11-26T02:41:10.778Z,0
2018-11-26T02:42:20.929Z,0
2018-11-26T02:43:31.086Z,0
2018-11-26T02:44:40.973Z,0
2018-11-26T02:45:51.126Z,0
2018-11-26T02:47:01.279Z,0
2018-11-26T02:48:11.444Z,0
2018-11-26T02:49:21.601Z,0
2018-11-26T02:50:31.504Z,0
2018-11-26T02:51:41.653Z,0
2018-11-26T02:52:51.809Z,0
2018-11-26T02:54:01.971Z,0
2018-11-26T02:55:12.134Z,0
2018-11-26T02:56:22.037Z,0
2018-11-26T02:57:32.253Z,0
2018-11-26T02:58:42.416Z,0
2018-11-26T02:59:52.570Z,0
2018-11-26T03:01:02.733Z,0
2018-11-26T03:02:12.898Z,0
2018-11-26T03:03:23.048Z,0
2018-11-26T03:04:33.208Z,0
2018-11-26T03:05:43.375Z,0
2018-11-26T03:06:53.533Z,0
2018-11-26T03:08:03.694Z,0
2018-11-26T03:09:13.590Z,0
2018-11-26T03:10:23.748Z,0
2018-11-26T03:11:33.899Z,0
2018-11-26T03:12:44.105Z,0
2018-11-26T03:13:54.265Z,0
2018-11-26T03:15:04.419Z,0
2018-11-26T03:16:14.584Z,0
2018-11-26T03:17:24.744Z,0
2018-11-26T03:18:34.902Z,0
2018-11-26T03:19:45.062Z,0
2018-11-26T03:20:55.212Z,0
2018-11-26T03:22:05.379Z,0
2018-11-26T03:23:15.546Z,0
2018-11-26T03:24:25.173Z,0
2018-11-26T03:25:35.068Z,0
2018-11-26T03:26:45.225Z,0
2018-11-26T03:27:55.142Z,0
2018-11-26T03:29:05.309Z,0
2018-11-26T03:30:15.496Z,0
2018-11-26T03:31:25.751Z,0
2018-11-26T03:32:35.926Z,0
2018-11-26T03:33:46.092Z,0
2018-11-26T03:34:55.727Z,0
2018-11-26T03:36:05.958Z,0
2018-11-26T03:37:15.872Z,0
2018-11-26T03:38:25.776Z,0
2018-11-26T03:39:35.962Z,0
2018-11-26T03:40:46.116Z,0
2018-11-26T03:41:56.260Z,0
2018-11-26T03:43:06.169Z,0
2018-11-26T03:44:16.074Z,0
2018-11-26T03:45:26.241Z,0
2018-11-26T03:46:36.418Z,0
2018-11-26T03:47:46.575Z,0
2018-11-26T03:48:56.756Z,0
2018-11-26T03:50:06.935Z,0
2018-11-26T03:51:16.851Z,0
2018-11-26T03:52:27.016Z,0
2018-11-26T03:53:37.178Z,0
2018-11-26T03:54:47.419Z,0
2018-11-26T03:55:57.577Z,0
2018-11-26T03:57:07.477Z,0
2018-11-26T03:58:17.640Z,0
2018-11-26T03:59:27.807Z,0
2018-11-26T04:00:37.972Z,0
2018-11-26T04:01:48.140Z,0
2018-11-26T04:02:58.312Z,0
2018-11-26T04:04:08.471Z,0
2018-11-26T04:05:18.628Z,0
2018-11-26T04:06:28.527Z,0
2018-11-26T04:07:38.683Z,0
2018-11-26T04:08:48.580Z,0
2018-11-26T04:09:58.473Z,0
2018-11-26T04:11:08.628Z,0
2018-11-26T04:12:18.536Z,0
2018-11-26T04:13:28.700Z,0
2018-11-26T04:14:38.599Z,0
2018-11-26T04:15:48.489Z,0
2018-11-26T04:16:58.388Z,0
2018-11-26T04:18:08.543Z,0
2018-11-26T04:19:18.694Z,0
2018-11-26T04:20:28.358Z,0
2018-11-26T04:21:38.532Z,0
2018-11-26T04:22:48.426Z,0
2018-11-26T04:23:58.605Z,0
2018-11-26T04:25:08.769Z,0
2018-11-26T04:26:18.669Z,0
2018-11-26T04:27:28.556Z,0
2018-11-26T04:28:38.731Z,0
2018-11-26T04:29:48.895Z,0
2018-11-26T04:30:58.788Z,0
2018-11-26T04:32:08.958Z,0
2018-11-26T04:33:19.110Z,0
2018-11-26T04:34:29.274Z,0
2018-11-26T04:35:39.175Z,0
2018-11-26T04:36:48.801Z,0
2018-11-26T04:37:58.968Z,0
2018-11-26T04:39:09.129Z,0
2018-11-26T04:40:19.021Z,0
2018-11-26T04:41:28.657Z,0
2018-11-26T04:42:38.823Z,0
2018-11-26T04:43:48.977Z,0
2018-11-26T04:44:59.130Z,0
2018-11-26T04:46:09.288Z,0
2018-11-26T04:47:18.922Z,0
2018-11-26T04:48:29.104Z,0
2018-11-26T04:49:39.266Z,0
2018-11-26T04:50:48.893Z,0
2018-11-26T04:51:59.054Z,0
2018-11-26T04:53:09.221Z,0
2018-11-26T04:54:19.380Z,0
2018-11-26T04:55:29.528Z,0
2018-11-26T04:56:39.691Z,0
2018-11-26T04:57:50.328Z,0
2018-11-26T04:59:00.484Z,0
2018-11-26T05:00:10.372Z,0
2018-11-26T05:01:20.530Z,0
2018-11-26T05:02:30.429Z,0
2018-11-26T05:03:40.590Z,0
2018-11-26T05:04:50.739Z,0
2018-11-26T05:06:00.907Z,0
2018-11-26T05:07:11.079Z,0
2018-11-26T05:08:21.242Z,0
2018-11-26T05:09:31.401Z,0
2018-11-26T05:10:41.567Z,0
2018-11-26T05:11:51.725Z,0
2018-11-26T05:13:01.625Z,0
2018-11-26T05:14:11.528Z,0
2018-11-26T05:15:21.694Z,0
2018-11-26T05:16:31.588Z,0
2018-11-26T05:17:41.755Z,0
2018-11-26T05:18:51.912Z,0
2018-11-26T05:20:02.097Z,0
2018-11-26T05:21:12.294Z,0
2018-11-26T05:22:22.462Z,0
2018-11-26T05:23:32.374Z,0
2018-11-26T05:24:42.535Z,0
2018-11-26T05:25:52.694Z,0
2018-11-26T05:27:02.850Z,0
2018-11-26T05:28:12.748Z,0
2018-11-26T05:29:22.651Z,0
2018-11-26T05:30:32.620Z,0
2018-11-26T05:31:42.810Z,0
2018-11-26T05:32:52.970Z,0
2018-11-26T05:34:02.925Z,0
2018-11-26T05:35:13.082Z,0
2018-11-26T05:36:23.240Z,0
2018-11-26T05:37:33.406Z,0
2018-11-26T05:38:43.567Z,0
2018-11-26T05:39:53.713Z,0
2018-11-26T05:41:03.879Z,0
2018-11-26T05:42:13.775Z,0
2018-11-26T05:43:23.938Z,0
2018-11-26T05:44:33.831Z,0
2018-11-26T05:45:43.720Z,0
2018-11-26T05:46:53.866Z,0
2018-11-26T05:48:04.020Z,0
2018-11-26T05:49:14.174Z,0
2018-11-26T05:50:24.058Z,0
2018-11-26T05:51:34.209Z,0
2018-11-26T05:52:44.365Z,0
2018-11-26T05:53:54.261Z,0
2018-11-26T05:55:04.420Z,0
2018-11-26T05:56:14.573Z,0
2018-11-26T05:57:24.765Z,0
2018-11-26T05:58:34.651Z,0
2018-11-26T05:59:44.810Z,0
2018-11-26T06:00:54.709Z,0
2018-11-26T06:02:04.876Z,0
2018-11-26T06:03:15.028Z,0
2018-11-26T06:04:24.926Z,0
2018-11-26T06:05:35.095Z,0
2018-11-26T06:06:44.983Z,0
2018-11-26T06:07:55.135Z,0
2018-11-26T06:09:05.296Z,0
2018-11-26T06:10:15.465Z,0
2018-11-26T06:11:25.632Z,0
2018-11-26T06:12:35.788Z,0
2018-11-26T06:13:45.939Z,0
2018-11-26T06:14:55.818Z,0
2018-11-26T06:16:05.440Z,0
2018-11-26T06:17:15.606Z,0
2018-11-26T06:18:25.765Z,0
2018-11-26T06:19:35.926Z,0
2018-11-26T06:20:46.083Z,0
2018-11-26T06:21:56.237Z,0
2018-11-26T06:23:06.393Z,0
2018-11-26T06:24:16.554Z,0
2018-11-26T06:25:26.719Z,0
2018-11-26T06:26:36.880Z,0
2018-11-26T06:27:47.026Z,0
2018-11-26T06:28:57.189Z,0
2018-11-26T06:30:07.101Z,0
2018-11-26T06:31:17.265Z,0
2018-11-26T06:32:28.288Z,0
2018-11-26T06:33:38.184Z,4
2018-11-26T06:34:49.851Z,4
2018-11-26T06:36:00.003Z,0
2018-11-26T06:37:10.167Z,4
2018-11-26T06:38:20.368Z,4
2018-11-26T06:39:30.513Z,4
2018-11-26T06:40:40.677Z,8
2018-11-26T06:41:50.831Z,4
2018-11-26T06:43:00.983Z,8
2018-11-26T06:44:11.137Z,12
2018-11-26T06:45:21.295Z,12
2018-11-26T06:46:31.454Z,16
2018-11-26T06:47:41.612Z,16
2018-11-26T06:48:52.413Z,16
2018-11-26T06:50:02.587Z,24
2018-11-26T06:51:12.754Z,24
2018-11-26T06:52:22.644Z,32
2018-11-26T06:53:32.802Z,36
2018-11-26T06:54:42.696Z,40
2018-11-26T06:55:52.328Z,44
2018-11-26T06:57:02.477Z,56
2018-11-26T06:58:12.098Z,60
2018-11-26T06:59:22.253Z,68
2018-11-26T07:00:32.436Z,72
2018-11-26T07:01:42.340Z,84
2018-11-26T07:02:52.530Z,92
2018-11-26T07:04:02.690Z,100
2018-11-26T07:05:12.848Z,112
2018-11-26T07:06:23.006Z,124
2018-11-26T07:07:33.160Z,128
2018-11-26T07:08:43.320Z,140
2018-11-26T07:09:53.473Z,152
2018-11-26T07:11:03.627Z,164
2018-11-26T07:12:13.797Z,176
2018-11-26T07:13:23.961Z,188
2018-11-26T07:14:33.597Z,204
2018-11-26T07:15:43.758Z,220
2018-11-26T07:16:53.913Z,240
2018-11-26T07:18:03.803Z,256
2018-11-26T07:19:14.163Z,276
2018-11-26T07:20:24.090Z,300
2018-11-26T07:21:34.241Z,320
2018-11-26T07:22:44.397Z,344
2018-11-26T07:23:54.553Z,368
2018-11-26T07:25:04.715Z,396
2018-11-26T07:26:14.883Z,420
2018-11-26T07:27:25.044Z,448
2018-11-26T07:28:34.950Z,480
2018-11-26T07:29:44.564Z,512
2018-11-26T07:30:54.462Z,544
2018-11-26T07:32:04.639Z,576
2018-11-26T07:33:14.529Z,604
2018-11-26T07:34:24.679Z,640
2018-11-26T07:35:34.841Z,672
2018-11-26T07:36:44.989Z,712
2018-11-26T07:37:55.150Z,744
2018-11-26T07:39:05.352Z,780
2018-11-26T07:40:15.511Z,816
2018-11-26T07:41:25.671Z,852
2018-11-26T07:42:35.567Z,888
2018-11-26T07:43:45.451Z,924
2018-11-26T07:44:55.340Z,960
2018-11-26T07:46:05.492Z,996
2018-11-26T07:47:15.650Z,1032
2018-11-26T07:48:25.817Z,1068
2018-11-26T07:49:35.717Z,1108
2018-11-26T07:50:45.882Z,1144
2018-11-26T07:51:56.047Z,1184
2018-11-26T07:53:05.934Z,1224
2018-11-26T07:54:16.091Z,1264
2018-11-26T07:55:26.247Z,1300
2018-11-26T07:56:36.408Z,1336
2018-11-26T07:57:46.570Z,1376
2018-11-26T07:58:56.459Z,1412
2018-11-26T08:00:06.619Z,1448
2018-11-26T08:01:16.776Z,1484
2018-11-26T08:02:26.940Z,1524
2018-11-26T08:03:37.110Z,1564
2018-11-26T08:04:46.739Z,1604
2018-11-26T08:05:56.899Z,1644
2018-11-26T08:07:07.058Z,1676
2018-11-26T08:08:17.215Z,1712
2018-11-26T08:09:27.371Z,1748
2018-11-26T08:10:37.532Z,1776
2018-11-26T08:11:47.686Z,1812
2018-11-26T08:12:57.932Z,1844
2018-11-26T08:14:08.146Z,1880
2018-11-26T08:15:18.301Z,1912
2018-11-26T08:16:28.466Z,1948
2018-11-26T08:17:38.090Z,1980
2018-11-26T08:18:48.248Z,2020
2018-11-26T08:19:58.448Z,2056
2018-11-26T08:21:08.602Z,2092
2018-11-26T08:22:18.754Z,2128
2018-11-26T08:23:28.642Z,2164
2018-11-26T08:24:38.801Z,2200
2018-11-26T08:25:48.696Z,2232
2018-11-26T08:26:58.858Z,2268
2018-11-26T08:28:09.023Z,2300
2018-11-26T08:29:18.916Z,2332
2018-11-26T08:30:29.092Z,2360
2018-11-26T08:31:39.257Z,2380
2018-11-26T08:32:49.405Z,2400
2018-11-26T08:33:59.307Z,2436
2018-11-26T08:35:09.475Z,2468
2018-11-26T08:36:19.662Z,2484
2018-11-26T08:37:29.556Z,2508
2018-11-26T08:38:39.708Z,2588
2018-11-26T08:39:49.598Z,2608
2018-11-26T08:40:59.749Z,2580
2018-11-26T08:42:09.910Z,2712
2018-11-26T08:43:20.070Z,2720
2018-11-26T08:44:30.247Z,2688
2018-11-26T08:45:40.866Z,2680
2018-11-26T08:46:51.030Z,2740
2018-11-26T08:48:01.191Z,2792
2018-11-26T08:49:11.097Z,2824
2018-11-26T08:50:21.511Z,2864
2018-11-26T08:51:31.404Z,2896
2018-11-26T08:52:41.557Z,2920
2018-11-26T08:53:51.447Z,2956
2018-11-26T08:55:01.601Z,2988
2018-11-26T08:56:11.750Z,3028
2018-11-26T08:57:21.635Z,3060
2018-11-26T08:58:31.804Z,3080
2018-11-26T08:59:41.961Z,3132
2018-11-26T09:00:52.118Z,3168
2018-11-26T09:02:01.746Z,3208
2018-11-26T09:03:11.935Z,3284
2018-11-26T09:04:22.118Z,3348
2018-11-26T09:05:32.279Z,3384
2018-11-26T09:06:42.448Z,3436
2018-11-26T09:07:52.617Z,3488
2018-11-26T09:09:02.779Z,3528
2018-11-26T09:10:12.936Z,3560
2018-11-26T09:11:23.088Z,3600
2018-11-26T09:12:33.359Z,3648
2018-11-26T09:13:43.520Z,3668
2018-11-26T09:14:53.419Z,3692
2018-11-26T09:16:03.601Z,3756
2018-11-26T09:17:13.567Z,3784
2018-11-26T09:18:23.818Z,3784
2018-11-26T09:19:33.710Z,3824
2018-11-26T09:20:43.622Z,3908
2018-11-26T09:21:53.528Z,3944
2018-11-26T09:23:03.697Z,3992
2018-11-26T09:24:13.591Z,3984
2018-11-26T09:25:23.742Z,4132
2018-11-26T09:26:33.900Z,4124
2018-11-26T09:27:43.795Z,4192
2018-11-26T09:28:53.972Z,4264
2018-11-26T09:30:04.141Z,4352
2018-11-26T09:31:14.047Z,4508
2018-11-26T09:32:24.210Z,4656
2018-11-26T09:33:34.369Z,4720
2018-11-26T09:34:44.530Z,4772
2018-11-26T09:35:54.436Z,4872
2018-11-26T09:37:04.328Z,4988
2018-11-26T09:38:15.598Z,5176
2018-11-26T09:39:25.763Z,5392
2018-11-26T09:40:35.911Z,5348
2018-11-26T09:41:46.131Z,5344
2018-11-26T09:42:56.064Z,5332
2018-11-26T09:44:06.304Z,5264
2018-11-26T09:45:16.463Z,5440
2018-11-26T09:46:26.365Z,5528
2018-11-26T09:47:36.594Z,5276
2018-11-26T09:48:46.785Z,5080
2018-11-26T09:49:56.950Z,4976
2018-11-26T09:51:09.963Z,5268
2018-11-26T09:52:24.166Z,4604
2018-11-26T09:53:34.060Z,4852
2018-11-26T09:54:44.226Z,5004
2018-11-26T09:55:54.383Z,4288
2018-11-26T09:57:04.548Z,4308
2018-11-26T09:58:14.707Z,5448
2018-11-26T09:59:24.359Z,5212
2018-11-26T10:00:34.524Z,4644
2018-11-26T10:01:44.684Z,5308
2018-11-26T10:02:54.857Z,5332
2018-11-26T10:04:05.018Z,5120
2018-11-26T10:05:15.173Z,4672
2018-11-26T10:06:24.827Z,4948
2018-11-26T10:07:34.991Z,5376
2018-11-26T10:08:45.159Z,5700
2018-11-26T10:09:55.320Z,5660
2018-11-26T10:11:05.494Z,5504
2018-11-26T10:12:15.646Z,5580
2018-11-26T10:13:25.801Z,5336
2018-11-26T10:14:35.962Z,5288
2018-11-26T10:15:46.127Z,5560
2018-11-26T10:16:56.291Z,5796
2018-11-26T10:18:06.487Z,5764
2018-11-26T10:19:16.649Z,5296
2018-11-26T10:20:26.555Z,5356
2018-11-26T10:21:36.491Z,5560
2018-11-26T10:22:46.399Z,5872
2018-11-26T10:23:56.565Z,5448
2018-11-26T10:25:13.192Z,5272
2018-11-26T10:26:23.357Z,5500
2018-11-26T10:27:33.514Z,5832
2018-11-26T10:28:43.690Z,5676
2018-11-26T10:29:53.854Z,5540
2018-11-26T10:31:04.073Z,4996
2018-11-26T10:32:14.496Z,5708
2018-11-26T10:33:24.696Z,6100
2018-11-26T10:34:34.319Z,6228
2018-11-26T10:35:44.489Z,5820
2018-11-26T10:36:54.441Z,5704
2018-11-26T10:38:04.352Z,5928
2018-11-26T10:39:14.516Z,4816
2018-11-26T10:40:24.433Z,5052
2018-11-26T10:41:34.592Z,5740
2018-11-26T10:42:44.500Z,6232
2018-11-26T10:43:53.621Z,6492
2018-11-26T10:45:03.535Z,6664
2018-11-26T10:46:13.439Z,6792
2018-11-26T10:47:23.602Z,6688
2018-11-26T10:48:33.762Z,6636
2018-11-26T10:49:43.674Z,6808
2018-11-26T10:50:53.853Z,6944
2018-11-26T10:52:04.027Z,6700
2018-11-26T10:53:13.918Z,6544
2018-11-26T10:54:24.076Z,6816
2018-11-26T10:55:33.712Z,6860
2018-11-26T10:56:43.346Z,6976
2018-11-26T10:57:52.979Z,6952
2018-11-26T10:59:02.875Z,6816
2018-11-26T11:00:13.041Z,6796
2018-11-26T11:01:23.198Z,6900
2018-11-26T11:02:33.363Z,6932
2018-11-26T11:03:43.539Z,6844
2018-11-26T11:04:55.092Z,6932
2018-11-26T11:06:05.245Z,6776
2018-11-26T11:07:15.404Z,6744
2018-11-26T11:08:26.308Z,6720
2018-11-26T11:09:36.599Z,6208
2018-11-26T11:10:46.783Z,6196
2018-11-26T11:11:56.945Z,6344
2018-11-26T11:13:06.588Z,5932
2018-11-26T11:14:16.526Z,5812
2018-11-26T11:15:26.684Z,5604
2018-11-26T11:16:36.838Z,5084
2018-11-26T11:17:46.786Z,4548
2018-11-26T11:18:56.961Z,4748
2018-11-26T11:20:07.136Z,4516
2018-11-26T11:21:16.767Z,3892
2018-11-26T11:22:26.934Z,3096
2018-11-26T11:23:37.096Z,3248
2018-11-26T11:24:47.259Z,2960
2018-11-26T11:25:57.419Z,2932
2018-11-26T11:27:07.322Z,2836
2018-11-26T11:28:16.957Z,3204
2018-11-26T11:29:26.586Z,3712
2018-11-26T11:30:36.477Z,2912
2018-11-26T11:31:45.833Z,3568
2018-11-26T11:32:55.745Z,3652
2018-11-26T11:34:05.894Z,2948
2018-11-26T11:35:15.827Z,2780
2018-11-26T11:36:25.450Z,2940
2018-11-26T11:37:35.603Z,2912
2018-11-26T11:38:46.512Z,2676
2018-11-26T11:39:56.395Z,2348
2018-11-26T11:41:06.276Z,2512
2018-11-26T11:42:15.899Z,3100
2018-11-26T11:43:26.068Z,3032
2018-11-26T11:44:35.723Z,3048
2018-11-26T11:45:45.641Z,2912
2018-11-26T11:46:55.526Z,3264
2018-11-26T11:48:05.149Z,3284
2018-11-26T11:49:15.302Z,3444
2018-11-26T11:50:25.194Z,3156
2018-11-26T11:51:34.580Z,2952
2018-11-26T11:52:44.465Z,3284
2018-11-26T11:53:54.359Z,3604
2018-11-26T11:55:03.997Z,3528
2018-11-26T11:56:13.883Z,3284
2018-11-26T11:57:23.766Z,3408
2018-11-26T11:58:33.652Z,3588
2018-11-26T11:59:43.530Z,3148
2018-11-26T12:00:53.423Z,3196
2018-11-26T12:02:02.774Z,3396
2018-11-26T12:03:12.392Z,3244
2018-11-26T12:04:22.283Z,3148
2018-11-26T12:05:32.445Z,3444
2018-11-26T12:06:42.588Z,3260
2018-11-26T12:07:52.478Z,3100
2018-11-26T12:09:02.096Z,3268
2018-11-26T12:10:12.297Z,3244
2018-11-26T12:11:22.452Z,3508
2018-11-26T12:12:32.602Z,3560
2018-11-26T12:13:42.538Z,3616
2018-11-26T12:14:52.161Z,3796
2018-11-26T12:16:02.311Z,3760
2018-11-26T12:17:11.669Z,3656
2018-11-26T12:18:21.825Z,3700
2018-11-26T12:19:31.707Z,3812
2018-11-26T12:20:41.590Z,3720
2018-11-26T12:21:51.252Z,3620
2018-11-26T12:23:01.401Z,3808
2018-11-26T12:24:11.301Z,3940
2018-11-26T12:25:20.924Z,4060
2018-11-26T12:26:30.545Z,4048
2018-11-26T12:27:40.698Z,3692
2018-11-26T12:28:50.580Z,3584
2018-11-26T12:30:00.466Z,3316
2018-11-26T12:31:10.609Z,3136
2018-11-26T12:32:20.769Z,2944
2018-11-26T12:33:30.919Z,2592
2018-11-26T12:34:40.270Z,2080
2018-11-26T12:35:50.468Z,1640
2018-11-26T12:37:04.929Z,1752
2018-11-26T12:38:14.815Z,1888
2018-11-26T12:39:24.761Z,1840
2018-11-26T12:40:34.386Z,1636
2018-11-26T12:41:44.011Z,1504
2018-11-26T12:42:53.631Z,1408
2018-11-26T12:44:03.785Z,1524
2018-11-26T12:45:13.676Z,1720
2018-11-26T12:46:23.295Z,1672
2018-11-26T12:47:33.192Z,1484
2018-11-26T12:48:43.080Z,1228
2018-11-26T12:49:53.233Z,1068
2018-11-26T12:51:03.122Z,1284
2018-11-26T12:52:12.743Z,1508
2018-11-26T12:53:22.661Z,1532
2018-11-26T12:54:32.799Z,1680
2018-11-26T12:55:42.689Z,1720
2018-11-26T12:56:52.401Z,1536
2018-11-26T12:58:02.022Z,1328
2018-11-26T12:59:12.163Z,1044
2018-11-26T13:00:21.778Z,1176
2018-11-26T13:01:31.537Z,1216
2018-11-26T13:02:41.159Z,1184
2018-11-26T13:03:50.519Z,1196
2018-11-26T13:05:00.279Z,1296
2018-11-26T13:06:10.430Z,1328
2018-11-26T13:07:20.576Z,1496
2018-11-26T13:08:30.207Z,1548
2018-11-26T13:09:39.833Z,1348
2018-11-26T13:10:49.455Z,1232
2018-11-26T13:11:59.070Z,1144
2018-11-26T13:13:09.220Z,1060
2018-11-26T13:14:19.100Z,1020
2018-11-26T13:15:28.814Z,948
2018-11-26T13:16:38.174Z,860
2018-11-26T13:17:48.065Z,840
2018-11-26T13:18:57.951Z,980
2018-11-26T13:20:07.311Z,968
2018-11-26T13:21:17.207Z,948
2018-11-26T13:22:27.096Z,924
2018-11-26T13:23:36.719Z,900
2018-11-26T13:24:46.865Z,908
2018-11-26T13:25:57.020Z,828
2018-11-26T13:27:06.930Z,716
2018-11-26T13:28:17.084Z,644
2018-11-26T13:29:27.235Z,588
2018-11-26T13:30:37.388Z,544
2018-11-26T13:31:47.280Z,516
2018-11-26T13:32:57.172Z,516
2018-11-26T13:34:07.324Z,536
2018-11-26T13:35:17.622Z,560
2018-11-26T13:36:27.505Z,544
2018-11-26T13:37:37.390Z,516
2018-11-26T13:38:47.534Z,508
2018-11-26T13:39:57.424Z,468
2018-11-26T13:41:07.572Z,432
2018-11-26T13:42:17.462Z,464
2018-11-26T13:43:27.376Z,520
2018-11-26T13:44:37.274Z,532
2018-11-26T13:45:47.160Z,488
2018-11-26T13:46:57.040Z,448
2018-11-26T13:48:06.927Z,420
2018-11-26T13:49:16.872Z,408
2018-11-26T13:50:27.881Z,376
2018-11-26T13:51:37.988Z,352
2018-11-26T13:52:47.560Z,376
2018-11-26T13:53:56.871Z,368
2018-11-26T13:55:06.752Z,352
2018-11-26T13:56:16.852Z,316
2018-11-26T13:57:26.685Z,308
2018-11-26T13:58:36.521Z,304
2018-11-26T13:59:45.833Z,276
2018-11-26T14:00:55.666Z,252
2018-11-26T14:02:04.981Z,256
2018-11-26T14:03:14.812Z,260
2018-11-26T14:04:24.643Z,240
2018-11-26T14:05:34.480Z,236
2018-11-26T14:06:44.170Z,224
2018-11-26T14:07:54.013Z,212
2018-11-26T14:09:04.120Z,212
2018-11-26T14:10:13.966Z,204
2018-11-26T14:11:23.799Z,200
2018-11-26T14:12:33.120Z,192
2018-11-26T14:13:42.693Z,188
2018-11-26T14:14:56.357Z,196
2018-11-26T14:16:06.602Z,184
2018-11-26T14:17:16.696Z,176
2018-11-26T14:18:26.798Z,176
2018-11-26T14:19:36.638Z,176
2018-11-26T14:20:46.214Z,172
2018-11-26T14:21:56.320Z,168
2018-11-26T14:23:06.160Z,176
2018-11-26T14:24:16.003Z,208
2018-11-26T14:25:25.585Z,272
2018-11-26T14:26:35.683Z,284
2018-11-26T14:27:45.565Z,272
2018-11-26T14:28:55.399Z,196
2018-11-26T14:30:05.491Z,164
2018-11-26T14:31:14.799Z,176
2018-11-26T14:32:24.377Z,184
2018-11-26T14:33:34.214Z,212
2018-11-26T14:34:43.804Z,224
2018-11-26T14:35:53.638Z,228
2018-11-26T14:37:03.273Z,240
2018-11-26T14:38:12.845Z,220
2018-11-26T14:39:22.691Z,252
2018-11-26T14:40:32.266Z,276
2018-11-26T14:41:41.583Z,264
2018-11-26T14:42:52.185Z,248
2018-11-26T14:44:01.769Z,204
2018-11-26T14:45:11.684Z,196
2018-11-26T14:46:21.257Z,188
2018-11-26T14:47:31.352Z,176
2018-11-26T14:48:41.191Z,160
2018-11-26T14:49:50.766Z,144
2018-11-26T14:51:00.341Z,136
2018-11-26T14:52:10.180Z,124
2018-11-26T14:53:20.076Z,108
2018-11-26T14:54:29.655Z,92
2018-11-26T14:55:39.496Z,84
2018-11-26T14:56:49.334Z,76
2018-11-26T14:57:59.436Z,72
2018-11-26T14:59:09.532Z,68
2018-11-26T15:00:18.394Z,68
2018-11-26T15:01:28.253Z,72
2018-11-26T15:02:37.569Z,72
2018-11-26T15:03:47.139Z,68
2018-11-26T15:04:56.972Z,64
2018-11-26T15:06:06.852Z,60
2018-11-26T15:07:16.947Z,60
2018-11-26T15:08:26.784Z,56
2018-11-26T15:09:36.877Z,52
2018-11-26T15:10:46.451Z,44
2018-11-26T15:11:55.782Z,44
2018-11-26T15:13:05.884Z,44
2018-11-26T15:14:15.465Z,40
2018-11-26T15:15:25.618Z,32
2018-11-26T15:16:35.714Z,32
2018-11-26T15:17:45.624Z,32
2018-11-26T15:18:55.454Z,40
2018-11-26T15:20:05.549Z,40
2018-11-26T15:21:15.243Z,40
2018-11-26T15:22:25.413Z,36
2018-11-26T15:23:35.420Z,36
2018-11-26T15:24:45.257Z,36
2018-11-26T15:25:55.354Z,32
2018-11-26T15:27:05.198Z,32
2018-11-26T15:28:15.295Z,32
2018-11-26T15:29:25.392Z,32
2018-11-26T15:30:35.236Z,32
2018-11-26T15:31:50.118Z,24
2018-11-26T15:32:59.928Z,24
2018-11-26T15:34:10.076Z,16
2018-11-26T15:35:19.913Z,16
2018-11-26T15:36:29.760Z,12
2018-11-26T15:37:39.861Z,8
2018-11-26T15:38:49.704Z,8
2018-11-26T15:39:59.798Z,8
2018-11-26T15:41:09.633Z,8
2018-11-26T15:42:19.467Z,4
2018-11-26T15:43:29.057Z,4
2018-11-26T15:44:38.370Z,4
2018-11-26T15:45:47.953Z,4
2018-11-26T15:46:57.582Z,4
2018-11-26T15:48:07.431Z,0
2018-11-26T15:49:17.007Z,4
2018-11-26T15:50:26.841Z,0
2018-11-26T15:51:36.938Z,0
2018-11-26T15:52:47.043Z,0
2018-11-26T15:53:56.879Z,0
2018-11-26T15:55:06.718Z,0
2018-11-26T15:56:16.549Z,0
2018-11-26T15:57:26.390Z,0
2018-11-26T15:58:35.983Z,0
2018-11-26T15:59:45.558Z,0
2018-11-26T16:00:55.397Z,0
2018-11-26T16:02:05.497Z,0
2018-11-26T16:03:15.340Z,0
2018-11-26T16:04:25.172Z,0
2018-11-26T16:05:34.740Z,0
2018-11-26T16:06:44.579Z,0
2018-11-26T16:07:53.891Z,0
2018-11-26T16:09:03.467Z,0
2018-11-26T16:10:13.349Z,0
2018-11-26T16:11:23.202Z,0
2018-11-26T16:12:33.043Z,0
2018-11-26T16:13:43.145Z,0
2018-11-26T16:14:52.768Z,0
2018-11-26T16:16:02.603Z,0
2018-11-26T16:17:12.438Z,0
2018-11-26T16:18:22.286Z,0
2018-11-26T16:19:32.123Z,0
2018-11-26T16:20:41.964Z,0
2018-11-26T16:21:52.122Z,0
2018-11-26T16:23:01.958Z,0
2018-11-26T16:24:12.062Z,0
2018-11-26T16:25:21.635Z,0
2018-11-26T16:26:31.475Z,0
2018-11-26T16:27:41.611Z,0